sensor_id;sensor_type;location;lat;lon;timestamp;pressure;altitude;pressure_sealevel;temperature;humidity
79150;BME280;68563;45.644;13.782;2023-05-23T00:00:37;100693.19;;;22.53;39.93
79150;BME280;68563;45.644;13.782;2023-05-23T00:03:02;100694.78;;;22.56;39.77
79150;BME280;68563;45.644;13.782;2023-05-23T00:05:28;100688.19;;;22.49;39.91
79150;BME280;68563;45.644;13.782;2023-05-23T00:07:54;100685.56;;;22.49;40.12
79150;BME280;68563;45.644;13.782;2023-05-23T00:10:20;100685.38;;;22.52;39.59
79150;BME280;68563;45.644;13.782;2023-05-23T00:12:46;100686.09;;;22.54;39.55
79150;BME280;68563;45.644;13.782;2023-05-23T00:15:12;100679.88;;;22.55;39.30
79150;BME280;68563;45.644;13.782;2023-05-23T00:17:38;100679.16;;;22.53;39.52
79150;BME280;68563;45.644;13.782;2023-05-23T00:20:07;100684.03;;;22.59;39.60
79150;BME280;68563;45.644;13.782;2023-05-23T00:22:37;100676.16;;;22.44;39.45
79150;BME280;68563;45.644;13.782;2023-05-23T00:25:09;100675.88;;;22.49;39.45
79150;BME280;68563;45.644;13.782;2023-05-23T00:27:35;100683.69;;;22.51;39.52
79150;BME280;68563;45.644;13.782;2023-05-23T00:30:01;100681.81;;;22.38;39.42
79150;BME280;68563;45.644;13.782;2023-05-23T00:32:26;100693.47;;;22.49;39.40
79150;BME280;68563;45.644;13.782;2023-05-23T00:34:52;100687.66;;;22.43;39.40
79150;BME280;68563;45.644;13.782;2023-05-23T00:37:21;100679.84;;;22.42;39.14
79150;BME280;68563;45.644;13.782;2023-05-23T00:39:47;100680.66;;;22.42;39.09
79150;BME280;68563;45.644;13.782;2023-05-23T00:42:13;100663.13;;;22.27;38.81
79150;BME280;68563;45.644;13.782;2023-05-23T00:44:38;100690.28;;;22.43;39.18
79150;BME280;68563;45.644;13.782;2023-05-23T00:47:04;100680.91;;;22.38;39.09
79150;BME280;68563;45.644;13.782;2023-05-23T00:49:31;100682.72;;;22.37;39.38
79150;BME280;68563;45.644;13.782;2023-05-23T00:51:57;100683.97;;;22.46;39.27
79150;BME280;68563;45.644;13.782;2023-05-23T00:54:27;100678.97;;;22.41;39.61
79150;BME280;68563;45.644;13.782;2023-05-23T00:56:53;100676.97;;;22.45;38.96
79150;BME280;68563;45.644;13.782;2023-05-23T00:59:20;100683.53;;;22.39;39.03
79150;BME280;68563;45.644;13.782;2023-05-23T01:01:47;100678.91;;;22.43;38.74
79150;BME280;68563;45.644;13.782;2023-05-23T01:04:14;100679.22;;;22.37;38.75
79150;BME280;68563;45.644;13.782;2023-05-23T01:06:40;100666.34;;;22.32;38.78
79150;BME280;68563;45.644;13.782;2023-05-23T01:09:11;100678.13;;;22.26;39.01
79150;BME280;68563;45.644;13.782;2023-05-23T01:12:09;100670.69;;;22.19;39.12
79150;BME280;68563;45.644;13.782;2023-05-23T01:14:50;100670.47;;;22.22;39.26
79150;BME280;68563;45.644;13.782;2023-05-23T01:17:20;100668.78;;;22.21;39.11
79150;BME280;68563;45.644;13.782;2023-05-23T01:20:01;100671.81;;;22.14;39.43
79150;BME280;68563;45.644;13.782;2023-05-23T01:22:48;100671.34;;;22.08;39.41
79150;BME280;68563;45.644;13.782;2023-05-23T01:28:04;100669.16;;;22.14;39.06
79150;BME280;68563;45.644;13.782;2023-05-23T01:30:34;100665.69;;;22.14;39.10
79150;BME280;68563;45.644;13.782;2023-05-23T01:33:03;100658.44;;;22.03;39.40
79150;BME280;68563;45.644;13.782;2023-05-23T01:35:30;100640.38;;;21.97;39.73
79150;BME280;68563;45.644;13.782;2023-05-23T01:37:56;100658.63;;;22.00;39.59
79150;BME280;68563;45.644;13.782;2023-05-23T01:40:23;100650.81;;;21.98;39.80
79150;BME280;68563;45.644;13.782;2023-05-23T01:42:48;100658.72;;;21.98;39.57
79150;BME280;68563;45.644;13.782;2023-05-23T01:45:15;100657.19;;;21.94;39.95
79150;BME280;68563;45.644;13.782;2023-05-23T01:47:42;100657.19;;;21.94;39.87
79150;BME280;68563;45.644;13.782;2023-05-23T01:50:08;100654.66;;;21.93;39.93
79150;BME280;68563;45.644;13.782;2023-05-23T01:52:35;100656.19;;;21.97;39.71
79150;BME280;68563;45.644;13.782;2023-05-23T01:55:02;100657.94;;;21.96;39.99
79150;BME280;68563;45.644;13.782;2023-05-23T01:57:34;100650.13;;;21.80;40.29
79150;BME280;68563;45.644;13.782;2023-05-23T02:00:00;100649.00;;;21.84;40.26
79150;BME280;68563;45.644;13.782;2023-05-23T02:02:25;100642.88;;;21.84;40.39
79150;BME280;68563;45.644;13.782;2023-05-23T02:04:52;100647.09;;;21.72;40.65
79150;BME280;68563;45.644;13.782;2023-05-23T02:07:18;100646.44;;;21.68;40.81
79150;BME280;68563;45.644;13.782;2023-05-23T02:09:47;100647.09;;;21.72;40.58
79150;BME280;68563;45.644;13.782;2023-05-23T02:12:13;100639.97;;;21.74;40.64
79150;BME280;68563;45.644;13.782;2023-05-23T02:14:38;100640.63;;;21.78;40.80
79150;BME280;68563;45.644;13.782;2023-05-23T02:17:04;100638.25;;;21.73;40.69
79150;BME280;68563;45.644;13.782;2023-05-23T02:19:29;100646.34;;;21.70;40.83
79150;BME280;68563;45.644;13.782;2023-05-23T02:21:54;100641.00;;;21.72;40.88
79150;BME280;68563;45.644;13.782;2023-05-23T02:24:20;100632.53;;;21.66;40.93
79150;BME280;68563;45.644;13.782;2023-05-23T02:26:45;100641.00;;;21.72;40.74
79150;BME280;68563;45.644;13.782;2023-05-23T02:29:11;100635.25;;;21.65;41.28
79150;BME280;68563;45.644;13.782;2023-05-23T02:31:36;100631.00;;;21.62;41.41
79150;BME280;68563;45.644;13.782;2023-05-23T02:34:01;100637.47;;;21.57;41.27
79150;BME280;68563;45.644;13.782;2023-05-23T02:36:27;100641.28;;;21.67;41.18
79150;BME280;68563;45.644;13.782;2023-05-23T02:38:52;100637.03;;;21.64;41.32
79150;BME280;68563;45.644;13.782;2023-05-23T02:41:17;100635.91;;;21.68;41.13
79150;BME280;68563;45.644;13.782;2023-05-23T02:43:45;100629.59;;;21.71;41.32
79150;BME280;68563;45.644;13.782;2023-05-23T02:46:11;100638.63;;;21.67;41.49
79150;BME280;68563;45.644;13.782;2023-05-23T02:48:37;100629.97;;;21.65;41.27
79150;BME280;68563;45.644;13.782;2023-05-23T02:51:03;100641.38;;;21.65;41.63
79150;BME280;68563;45.644;13.782;2023-05-23T02:53:28;100627.59;;;21.60;41.83
79150;BME280;68563;45.644;13.782;2023-05-23T02:55:53;100637.41;;;21.58;42.00
79150;BME280;68563;45.644;13.782;2023-05-23T02:58:19;100631.34;;;21.56;42.21
79150;BME280;68563;45.644;13.782;2023-05-23T03:00:44;100634.91;;;21.55;41.90
79150;BME280;68563;45.644;13.782;2023-05-23T03:03:10;100634.56;;;21.61;41.59
79150;BME280;68563;45.644;13.782;2023-05-23T03:05:36;100625.25;;;21.56;42.22
79150;BME280;68563;45.644;13.782;2023-05-23T03:08:01;100634.56;;;21.61;41.77
79150;BME280;68563;45.644;13.782;2023-05-23T03:10:27;100636.53;;;21.58;41.99
79150;BME280;68563;45.644;13.782;2023-05-23T03:12:52;100641.53;;;21.62;42.11
79150;BME280;68563;45.644;13.782;2023-05-23T03:15:18;100632.69;;;21.63;41.92
79150;BME280;68563;45.644;13.782;2023-05-23T03:17:43;100634.50;;;21.63;42.19
79150;BME280;68563;45.644;13.782;2023-05-23T03:20:09;100630.53;;;21.70;41.87
79150;BME280;68563;45.644;13.782;2023-05-23T03:22:35;100638.25;;;21.73;42.13
79150;BME280;68563;45.644;13.782;2023-05-23T03:25:01;100635.25;;;21.65;42.16
79150;BME280;68563;45.644;13.782;2023-05-23T03:27:26;100632.88;;;21.60;42.44
79150;BME280;68563;45.644;13.782;2023-05-23T03:29:51;100637.47;;;21.57;42.20
79150;BME280;68563;45.644;13.782;2023-05-23T03:32:17;100643.75;;;21.54;42.45
79150;BME280;68563;45.644;13.782;2023-05-23T03:34:42;100640.56;;;21.49;42.56
79150;BME280;68563;45.644;13.782;2023-05-23T03:37:07;100631.72;;;21.50;42.40
79150;BME280;68563;45.644;13.782;2023-05-23T03:39:33;100639.06;;;21.45;42.98
79150;BME280;68563;45.644;13.782;2023-05-23T03:41:58;100636.84;;;21.37;42.89
79150;BME280;68563;45.644;13.782;2023-05-23T03:44:23;100631.41;;;21.40;42.64
79150;BME280;68563;45.644;13.782;2023-05-23T03:46:49;100645.16;;;21.45;42.60
79150;BME280;68563;45.644;13.782;2023-05-23T03:49:14;100641.59;;;21.46;42.94
79150;BME280;68563;45.644;13.782;2023-05-23T03:51:40;100643.94;;;21.51;42.80
79150;BME280;68563;45.644;13.782;2023-05-23T03:54:05;100636.88;;;21.51;42.53
79150;BME280;68563;45.644;13.782;2023-05-23T03:56:30;100637.81;;;21.50;42.55
79150;BME280;68563;45.644;13.782;2023-05-23T03:58:56;100640.19;;;21.55;42.62
79150;BME280;68563;45.644;13.782;2023-05-23T04:01:21;100638.75;;;21.49;42.81
79150;BME280;68563;45.644;13.782;2023-05-23T04:03:48;100638.19;;;21.44;42.67
79150;BME280;68563;45.644;13.782;2023-05-23T04:06:13;100627.75;;;21.43;42.99
79150;BME280;68563;45.644;13.782;2023-05-23T04:08:38;100628.00;;;21.38;42.97
79150;BME280;68563;45.644;13.782;2023-05-23T04:11:06;100626.16;;;21.40;43.07
79150;BME280;68563;45.644;13.782;2023-05-23T04:13:32;100630.84;;;21.49;42.93
79150;BME280;68563;45.644;13.782;2023-05-23T04:15:59;100628.63;;;21.58;42.69
79150;BME280;68563;45.644;13.782;2023-05-23T04:18:26;100628.25;;;21.64;42.38
79150;BME280;68563;45.644;13.782;2023-05-23T04:20:53;100626.41;;;21.80;42.26
79150;BME280;68563;45.644;13.782;2023-05-23T04:23:18;100620.19;;;21.81;42.55
79150;BME280;68563;45.644;13.782;2023-05-23T04:25:43;100618.78;;;21.90;42.49
79150;BME280;68563;45.644;13.782;2023-05-23T04:28:10;100627.34;;;22.08;42.02
79150;BME280;68563;45.644;13.782;2023-05-23T04:30:36;100620.38;;;22.22;41.76
79150;BME280;68563;45.644;13.782;2023-05-23T04:33:01;100626.41;;;22.38;41.81
79150;BME280;68563;45.644;13.782;2023-05-23T04:35:26;100621.28;;;22.50;41.50
79150;BME280;68563;45.644;13.782;2023-05-23T04:37:58;100632.97;;;22.60;41.39
79150;BME280;68563;45.644;13.782;2023-05-23T04:40:24;100627.09;;;22.55;41.40
79150;BME280;68563;45.644;13.782;2023-05-23T04:42:49;100626.63;;;22.62;41.58
79150;BME280;68563;45.644;13.782;2023-05-23T04:45:16;100630.34;;;22.73;41.57
79150;BME280;68563;45.644;13.782;2023-05-23T04:47:43;100620.25;;;22.79;41.13
79150;BME280;68563;45.644;13.782;2023-05-23T04:50:10;100624.44;;;22.97;41.06
79150;BME280;68563;45.644;13.782;2023-05-23T04:52:35;100617.78;;;23.04;40.94
79150;BME280;68563;45.644;13.782;2023-05-23T04:55:00;100615.56;;;23.10;40.85
79150;BME280;68563;45.644;13.782;2023-05-23T04:57:26;100621.03;;;23.22;40.82
79150;BME280;68563;45.644;13.782;2023-05-23T04:59:51;100613.34;;;23.32;40.59
79150;BME280;68563;45.644;13.782;2023-05-23T05:02:17;100623.91;;;23.45;40.49
79150;BME280;68563;45.644;13.782;2023-05-23T05:04:43;100621.41;;;23.56;40.61
79150;BME280;68563;45.644;13.782;2023-05-23T05:07:08;100614.41;;;23.55;40.71
79150;BME280;68563;45.644;13.782;2023-05-23T05:09:34;100612.59;;;23.68;40.48
79150;BME280;68563;45.644;13.782;2023-05-23T05:11:59;100613.44;;;23.82;40.29
79150;BME280;68563;45.644;13.782;2023-05-23T05:14:25;100611.53;;;23.97;40.01
79150;BME280;68563;45.644;13.782;2023-05-23T05:16:51;100618.41;;;24.12;39.92
79150;BME280;68563;45.644;13.782;2023-05-23T05:19:16;100616.91;;;24.21;39.84
79150;BME280;68563;45.644;13.782;2023-05-23T05:21:42;100613.22;;;24.24;39.66
79150;BME280;68563;45.644;13.782;2023-05-23T05:24:07;100610.31;;;24.27;39.72
79150;BME280;68563;45.644;13.782;2023-05-23T05:26:37;100613.47;;;24.32;39.63
79150;BME280;68563;45.644;13.782;2023-05-23T05:29:02;100609.44;;;24.39;39.50
79150;BME280;68563;45.644;13.782;2023-05-23T05:31:28;100626.81;;;24.43;39.38
79150;BME280;68563;45.644;13.782;2023-05-23T05:33:54;100622.22;;;24.45;40.02
79150;BME280;68563;45.644;13.782;2023-05-23T05:36:19;100617.47;;;24.50;39.52
79150;BME280;68563;45.644;13.782;2023-05-23T05:38:46;100610.84;;;24.56;39.30
79150;BME280;68563;45.644;13.782;2023-05-23T05:41:11;100607.75;;;24.62;39.49
79150;BME280;68563;45.644;13.782;2023-05-23T05:43:36;100611.91;;;24.66;39.94
79150;BME280;68563;45.644;13.782;2023-05-23T05:46:02;100607.75;;;24.62;40.01
79150;BME280;68563;45.644;13.782;2023-05-23T05:48:27;100612.72;;;24.80;39.74
79150;BME280;68563;45.644;13.782;2023-05-23T05:50:53;100619.28;;;24.98;39.48
79150;BME280;68563;45.644;13.782;2023-05-23T05:53:18;100613.91;;;25.11;39.00
79150;BME280;68563;45.644;13.782;2023-05-23T05:55:44;100601.75;;;25.20;38.62
79150;BME280;68563;45.644;13.782;2023-05-23T05:58:09;100606.84;;;25.35;38.83
79150;BME280;68563;45.644;13.782;2023-05-23T06:00:34;100602.59;;;25.45;38.72
79150;BME280;68563;45.644;13.782;2023-05-23T06:03:08;100605.25;;;25.56;38.22
79150;BME280;68563;45.644;13.782;2023-05-23T06:05:34;100602.97;;;25.63;38.40
79150;BME280;68563;45.644;13.782;2023-05-23T06:07:59;100603.31;;;25.70;38.13
79150;BME280;68563;45.644;13.782;2023-05-23T06:10:25;100599.34;;;25.75;38.04
79150;BME280;68563;45.644;13.782;2023-05-23T06:12:50;100604.78;;;25.85;38.01
79150;BME280;68563;45.644;13.782;2023-05-23T06:15:17;100606.81;;;25.93;37.60
79150;BME280;68563;45.644;13.782;2023-05-23T06:17:43;100601.63;;;25.91;37.81
79150;BME280;68563;45.644;13.782;2023-05-23T06:20:10;100615.63;;;26.05;37.52
79150;BME280;68563;45.644;13.782;2023-05-23T06:22:35;100616.97;;;26.10;37.64
79150;BME280;68563;45.644;13.782;2023-05-23T06:25:01;100621.94;;;26.15;37.58
79150;BME280;68563;45.644;13.782;2023-05-23T06:27:26;100619.13;;;26.17;37.54
79150;BME280;68563;45.644;13.782;2023-05-23T06:29:52;100624.91;;;26.22;37.54
79150;BME280;68563;45.644;13.782;2023-05-23T06:32:17;100633.72;;;26.22;37.36
79150;BME280;68563;45.644;13.782;2023-05-23T06:34:43;100622.38;;;26.09;36.72
79150;BME280;68563;45.644;13.782;2023-05-23T06:37:08;100633.59;;;26.12;36.44
79150;BME280;68563;45.644;13.782;2023-05-23T06:39:33;100630.34;;;26.09;36.78
79150;BME280;68563;45.644;13.782;2023-05-23T06:41:59;100629.66;;;26.07;36.64
79150;BME280;68563;45.644;13.782;2023-05-23T06:44:25;100619.22;;;26.04;36.76
79150;BME280;68563;45.644;13.782;2023-05-23T06:46:50;100626.22;;;26.05;36.73
79150;BME280;68563;45.644;13.782;2023-05-23T06:49:24;100622.38;;;26.09;36.60
79150;BME280;68563;45.644;13.782;2023-05-23T06:51:50;100633.50;;;26.14;36.82
79150;BME280;68563;45.644;13.782;2023-05-23T06:54:15;100635.66;;;26.20;36.49
79150;BME280;68563;45.644;13.782;2023-05-23T06:56:41;100627.44;;;26.23;36.60
79150;BME280;68563;45.644;13.782;2023-05-23T06:59:06;100630.81;;;26.25;36.48
79150;BME280;68563;45.644;13.782;2023-05-23T07:01:31;100627.94;;;26.28;36.39
79150;BME280;68563;45.644;13.782;2023-05-23T07:03:57;100627.81;;;26.30;36.71
79150;BME280;68563;45.644;13.782;2023-05-23T07:06:22;100627.44;;;26.35;36.58
79150;BME280;68563;45.644;13.782;2023-05-23T07:08:48;100636.97;;;26.37;36.05
79150;BME280;68563;45.644;13.782;2023-05-23T07:11:13;100636.59;;;26.42;36.01
79150;BME280;68563;45.644;13.782;2023-05-23T07:13:39;100640.69;;;26.46;35.53
79150;BME280;68563;45.644;13.782;2023-05-23T07:16:04;100640.44;;;26.49;35.80
79150;BME280;68563;45.644;13.782;2023-05-23T07:18:30;100645.50;;;26.52;35.63
79150;BME280;68563;45.644;13.782;2023-05-23T07:20:55;100635.84;;;26.51;35.59
79150;BME280;68563;45.644;13.782;2023-05-23T07:23:22;100633.91;;;26.53;35.38
79150;BME280;68563;45.644;13.782;2023-05-23T07:25:48;100638.13;;;26.56;35.10
79150;BME280;68563;45.644;13.782;2023-05-23T07:28:13;100635.34;;;26.57;35.13
79150;BME280;68563;45.644;13.782;2023-05-23T07:30:40;100631.47;;;26.62;35.54
79150;BME280;68563;45.644;13.782;2023-05-23T07:33:06;100627.59;;;26.66;35.52
79150;BME280;68563;45.644;13.782;2023-05-23T07:35:32;100623.25;;;26.65;35.27
79150;BME280;68563;45.644;13.782;2023-05-23T07:37:57;100625.28;;;26.72;35.34
79150;BME280;68563;45.644;13.782;2023-05-23T07:40:22;100638.09;;;26.79;35.70
79150;BME280;68563;45.644;13.782;2023-05-23T07:42:48;100628.06;;;26.82;35.19
79150;BME280;68563;45.644;13.782;2023-05-23T07:45:13;100631.16;;;26.87;35.17
79150;BME280;68563;45.644;13.782;2023-05-23T07:47:40;100627.31;;;26.91;35.26
79150;BME280;68563;45.644;13.782;2023-05-23T07:50:06;100627.91;;;26.95;35.23
79150;BME280;68563;45.644;13.782;2023-05-23T07:52:32;100626.78;;;26.98;35.19
79150;BME280;68563;45.644;13.782;2023-05-23T07:54:58;100631.47;;;27.05;35.04
79150;BME280;68563;45.644;13.782;2023-05-23T07:57:24;100632.03;;;27.09;34.97
79150;BME280;68563;45.644;13.782;2023-05-23T07:59:51;100630.13;;;27.11;34.68
79150;BME280;68563;45.644;13.782;2023-05-23T08:02:17;100626.50;;;27.12;35.15
79150;BME280;68563;45.644;13.782;2023-05-23T08:04:42;100618.03;;;27.07;35.23
79150;BME280;68563;45.644;13.782;2023-05-23T08:07:09;100621.16;;;27.12;34.52
79150;BME280;68563;45.644;13.782;2023-05-23T08:09:38;100623.69;;;27.14;34.79
79150;BME280;68563;45.644;13.782;2023-05-23T08:12:08;100628.63;;;27.18;34.97
79150;BME280;68563;45.644;13.782;2023-05-23T08:14:34;100626.66;;;27.20;34.89
79150;BME280;68563;45.644;13.782;2023-05-23T08:16:59;100625.63;;;27.12;34.99
79150;BME280;68563;45.644;13.782;2023-05-23T08:19:25;100634.63;;;27.20;34.74
79150;BME280;68563;45.644;13.782;2023-05-23T08:21:51;100626.81;;;27.19;34.91
79150;BME280;68563;45.644;13.782;2023-05-23T08:24:18;100628.50;;;27.20;34.96
79150;BME280;68563;45.644;13.782;2023-05-23T08:26:43;100633.66;;;27.21;34.89
79150;BME280;68563;45.644;13.782;2023-05-23T08:29:09;100639.72;;;27.23;34.57
79150;BME280;68563;45.644;13.782;2023-05-23T08:31:34;100632.84;;;27.21;34.34
79150;BME280;68563;45.644;13.782;2023-05-23T08:34:00;100635.13;;;27.26;34.38
79150;BME280;68563;45.644;13.782;2023-05-23T08:36:25;100624.72;;;27.22;34.49
79150;BME280;68563;45.644;13.782;2023-05-23T08:38:51;100628.09;;;27.25;34.29
79150;BME280;68563;45.644;13.782;2023-05-23T08:41:21;100629.81;;;27.26;33.88
79150;BME280;68563;45.644;13.782;2023-05-23T08:43:47;100634.00;;;27.28;33.86
79150;BME280;68563;45.644;13.782;2023-05-23T08:46:16;100632.19;;;27.29;34.17
79150;BME280;68563;45.644;13.782;2023-05-23T08:48:43;100630.38;;;27.29;34.28
79150;BME280;68563;45.644;13.782;2023-05-23T08:51:12;100623.81;;;27.33;34.11
79150;BME280;68563;45.644;13.782;2023-05-23T08:53:41;100632.63;;;27.34;34.39
79150;BME280;68563;45.644;13.782;2023-05-23T08:56:11;100633.09;;;27.39;33.84
79150;BME280;68563;45.644;13.782;2023-05-23T08:58:38;100627.53;;;27.42;33.79
79150;BME280;68563;45.644;13.782;2023-05-23T09:01:06;100629.38;;;27.42;33.28
79150;BME280;68563;45.644;13.782;2023-05-23T09:03:32;100623.78;;;27.45;33.17
79150;BME280;68563;45.644;13.782;2023-05-23T09:05:57;100622.22;;;27.42;32.93
79150;BME280;68563;45.644;13.782;2023-05-23T09:08:24;100625.59;;;27.44;33.22
79150;BME280;68563;45.644;13.782;2023-05-23T09:10:50;100624.63;;;27.45;33.45
79150;BME280;68563;45.644;13.782;2023-05-23T09:13:16;100618.59;;;27.43;32.79
79150;BME280;68563;45.644;13.782;2023-05-23T09:18:24;100621.25;;;27.43;32.91
79150;BME280;68563;45.644;13.782;2023-05-23T09:20:50;100617.16;;;27.39;32.91
79150;BME280;68563;45.644;13.782;2023-05-23T09:23:15;100610.28;;;27.36;32.06
79150;BME280;68563;45.644;13.782;2023-05-23T09:25:47;100619.66;;;27.41;31.95
79150;BME280;68563;45.644;13.782;2023-05-23T09:28:13;100621.03;;;27.35;32.14
79150;BME280;68563;45.644;13.782;2023-05-23T09:30:38;100628.03;;;27.36;32.80
79150;BME280;68563;45.644;13.782;2023-05-23T09:33:03;100628.03;;;27.36;32.35
79150;BME280;68563;45.644;13.782;2023-05-23T09:35:29;100620.44;;;27.31;31.78
79150;BME280;68563;45.644;13.782;2023-05-23T09:37:56;100623.81;;;27.33;31.44
79150;BME280;68563;45.644;13.782;2023-05-23T09:40:28;100623.00;;;27.33;31.76
79150;BME280;68563;45.644;13.782;2023-05-23T09:42:54;100628.41;;;27.31;31.18
79150;BME280;68563;45.644;13.782;2023-05-23T09:45:28;100625.75;;;27.31;31.59
79150;BME280;68563;45.644;13.782;2023-05-23T09:47:54;100612.00;;;27.26;31.07
79150;BME280;68563;45.644;13.782;2023-05-23T09:50:21;100628.22;;;27.23;30.46
79150;BME280;68563;45.644;13.782;2023-05-23T09:52:47;100631.66;;;27.14;30.35
79150;BME280;68563;45.644;13.782;2023-05-23T09:55:13;100628.66;;;27.07;30.77
79150;BME280;68563;45.644;13.782;2023-05-23T09:57:40;100630.50;;;27.06;30.56
79150;BME280;68563;45.644;13.782;2023-05-23T10:00:10;100627.97;;;27.05;30.66
79150;BME280;68563;45.644;13.782;2023-05-23T10:05:48;100628.22;;;27.02;31.22
79150;BME280;68563;45.644;13.782;2023-05-23T10:08:33;100623.88;;;27.01;30.38
79150;BME280;68563;45.644;13.782;2023-05-23T10:13:40;100623.28;;;26.97;30.79
79150;BME280;68563;45.644;13.782;2023-05-23T10:16:26;100629.19;;;27.01;30.48
79150;BME280;68563;45.644;13.782;2023-05-23T10:18:58;100627.50;;;27.00;31.15
79150;BME280;68563;45.644;13.782;2023-05-23T10:21:43;100632.81;;;27.00;30.99
79150;BME280;68563;45.644;13.782;2023-05-23T10:24:12;100623.66;;;26.92;30.17
79150;BME280;68563;45.644;13.782;2023-05-23T10:26:38;100629.84;;;26.93;30.32
79150;BME280;68563;45.644;13.782;2023-05-23T10:29:05;100633.59;;;26.90;30.95
79150;BME280;68563;45.644;13.782;2023-05-23T10:31:31;100633.97;;;26.86;30.42
79150;BME280;68563;45.644;13.782;2023-05-23T10:34:04;100621.19;;;26.80;30.73
79150;BME280;68563;45.644;13.782;2023-05-23T10:36:39;100632.13;;;26.86;30.83
79150;BME280;68563;45.644;13.782;2023-05-23T10:39:18;100632.41;;;26.83;30.43
79150;BME280;68563;45.644;13.782;2023-05-23T10:41:49;100638.19;;;26.88;30.65
79150;BME280;68563;45.644;13.782;2023-05-23T10:44:24;100636.28;;;26.79;30.80
79150;BME280;68563;45.644;13.782;2023-05-23T10:47:02;100631.53;;;26.83;30.41
79150;BME280;68563;45.644;13.782;2023-05-23T10:49:45;100634.72;;;26.77;30.55
79150;BME280;68563;45.644;13.782;2023-05-23T10:52:15;100632.91;;;26.77;29.99
79150;BME280;68563;45.644;13.782;2023-05-23T10:54:53;100639.78;;;26.80;30.19
79150;BME280;68563;45.644;13.782;2023-05-23T10:57:24;100637.22;;;26.78;30.47
79150;BME280;68563;45.644;13.782;2023-05-23T10:59:53;100629.25;;;26.78;30.36
79150;BME280;68563;45.644;13.782;2023-05-23T11:02:25;100636.28;;;26.79;30.17
79150;BME280;68563;45.644;13.782;2023-05-23T11:05:20;100624.81;;;26.79;30.39
79150;BME280;68563;45.644;13.782;2023-05-23T11:08:13;100623.94;;;26.78;30.35
79150;BME280;68563;45.644;13.782;2023-05-23T11:11:02;100632.91;;;26.77;30.54
79150;BME280;68563;45.644;13.782;2023-05-23T11:13:56;100632.06;;;26.77;30.42
79150;BME280;68563;45.644;13.782;2023-05-23T11:16:38;100630.97;;;26.79;30.87
79150;BME280;68563;45.644;13.782;2023-05-23T11:21:51;100619.84;;;26.74;30.47
79150;BME280;68563;45.644;13.782;2023-05-23T11:24:17;100622.72;;;26.71;30.79
79150;BME280;68563;45.644;13.782;2023-05-23T11:26:57;100623.31;;;26.74;30.54
79150;BME280;68563;45.644;13.782;2023-05-23T11:29:28;100631.22;;;26.76;30.37
79150;BME280;68563;45.644;13.782;2023-05-23T11:31:57;100627.84;;;26.63;30.55
79150;BME280;68563;45.644;13.782;2023-05-23T11:34:25;100628.06;;;26.71;30.03
79150;BME280;68563;45.644;13.782;2023-05-23T11:36:54;100631.69;;;26.70;30.06
79150;BME280;68563;45.644;13.782;2023-05-23T11:39:20;100627.81;;;26.74;30.21
79150;BME280;68563;45.644;13.782;2023-05-23T11:41:57;100629.16;;;26.68;30.39
79150;BME280;68563;45.644;13.782;2023-05-23T11:44:23;100623.00;;;26.68;30.53
79150;BME280;68563;45.644;13.782;2023-05-23T11:47:02;100626.31;;;26.60;30.57
79150;BME280;68563;45.644;13.782;2023-05-23T11:49:33;100623.00;;;26.68;30.29
79150;BME280;68563;45.644;13.782;2023-05-23T11:52:01;100625.06;;;26.64;30.28
79150;BME280;68563;45.644;13.782;2023-05-23T11:54:27;100619.16;;;26.60;30.53
79150;BME280;68563;45.644;13.782;2023-05-23T11:56:53;100625.56;;;26.58;30.67
79150;BME280;68563;45.644;13.782;2023-05-23T11:59:20;100630.63;;;26.61;31.06
79150;BME280;68563;45.644;13.782;2023-05-23T12:01:46;100629.78;;;26.60;31.08
79150;BME280;68563;45.644;13.782;2023-05-23T12:04:11;100626.41;;;26.58;30.93
79150;BME280;68563;45.644;13.782;2023-05-23T12:06:39;100625.44;;;26.59;30.96
79150;BME280;68563;45.644;13.782;2023-05-23T12:09:06;100622.06;;;26.57;31.37
79150;BME280;68563;45.644;13.782;2023-05-23T12:11:32;100618.56;;;26.57;31.04
79150;BME280;68563;45.644;13.782;2023-05-23T12:13:57;100620.13;;;26.59;31.26
79150;BME280;68563;45.644;13.782;2023-05-23T12:16:29;100607.22;;;26.55;31.43
79150;BME280;68563;45.644;13.782;2023-05-23T12:18:54;100616.16;;;26.54;31.79
79150;BME280;68563;45.644;13.782;2023-05-23T12:21:24;100607.22;;;26.55;31.93
79150;BME280;68563;45.644;13.782;2023-05-23T12:23:50;100612.44;;;26.56;31.83
79150;BME280;68563;45.644;13.782;2023-05-23T12:26:16;100609.03;;;26.54;32.19
79150;BME280;68563;45.644;13.782;2023-05-23T12:28:42;100603.38;;;26.59;32.36
79150;BME280;68563;45.644;13.782;2023-05-23T12:33:42;100601.31;;;26.63;32.36
79150;BME280;68563;45.644;13.782;2023-05-23T12:36:12;100586.56;;;26.58;32.18
79150;BME280;68563;45.644;13.782;2023-05-23T12:38:38;100598.66;;;26.63;32.35
79150;BME280;68563;45.644;13.782;2023-05-23T12:41:23;100593.44;;;26.61;32.72
79150;BME280;68563;45.644;13.782;2023-05-23T12:43:52;100605.50;;;26.65;32.44
79150;BME280;68563;45.644;13.782;2023-05-23T12:46:23;100605.38;;;26.67;32.57
79150;BME280;68563;45.644;13.782;2023-05-23T12:48:48;100603.44;;;26.69;32.77
79150;BME280;68563;45.644;13.782;2023-05-23T12:51:14;100600.06;;;26.67;32.57
79150;BME280;68563;45.644;13.782;2023-05-23T12:53:40;100610.81;;;26.65;32.57
79150;BME280;68563;45.644;13.782;2023-05-23T12:56:05;100605.66;;;26.64;32.79
79150;BME280;68563;45.644;13.782;2023-05-23T12:58:30;100595.25;;;26.60;32.92